YAM weather

Sault Ste Marie Airport
Sault Ste Marie, Ontario, Canada

Public forecast

Using degrees Celsius for public forecast. Weather courtesy of forecast.io.

Current aviation weather report (METAR) for Sault Ste Marie Airport

Retrieved 2019/10/16 22:00 UTC (55 minutes ago):

CYAM 162200Z 35011KT 15SM FEW026 SCT036 BKN081 07/03 A2975 RMK SC2SC2AC3 SLP083

Aviation forecast (TAF) for Sault Ste Marie Airport

Retrieved 2019/10/16 20:39 UTC (2 hours ago):

TAF TAF CYAM 161938Z 1620/1708 35015G25KT P6SM SCT010 OVC025 TEMPO 1620/1708 5SM -SHRA BR OVC010 RMK NXT FCST BY 170200Z